createdAt,value
2023-04-09T00:01:02.335Z,22.10
2023-04-09T00:02:10.529Z,21.60
2023-04-09T00:03:13.606Z,21.20
2023-04-09T00:04:16.667Z,22.30
2023-04-09T00:05:19.584Z,22.20
2023-04-09T00:06:22.475Z,19.60
2023-04-09T00:07:25.338Z,22.50
2023-04-09T00:08:28.401Z,20.50
2023-04-09T00:09:32.109Z,18.70
2023-04-09T00:10:35.036Z,20.10
2023-04-09T00:11:37.924Z,17.50
2023-04-09T00:12:40.928Z,22.30
2023-04-09T00:13:43.792Z,19.60
2023-04-09T00:14:46.624Z,19.70
2023-04-09T00:15:49.544Z,17.40
2023-04-09T00:16:52.437Z,19.00
2023-04-09T00:17:56.320Z,17.60
2023-04-09T00:18:59.225Z,21.60
2023-04-09T00:20:02.100Z,18.60
2023-04-09T00:21:05.690Z,19.50
2023-04-09T00:22:08.569Z,18.60
2023-04-09T00:23:12.963Z,18.30
2023-04-09T00:24:16.192Z,17.70
2023-04-09T00:25:20.121Z,20.30
2023-04-09T00:26:23.083Z,18.40
2023-04-09T00:27:25.962Z,19.30
2023-04-09T00:28:28.868Z,21.20
2023-04-09T00:29:31.700Z,20.50
2023-04-09T00:30:34.584Z,16.10
2023-04-09T00:31:37.477Z,17.90
2023-04-09T00:32:40.686Z,19.80
2023-04-09T00:33:44.124Z,20.20
2023-04-09T00:34:47.019Z,18.50
2023-04-09T00:35:50.033Z,19.00
2023-04-09T00:36:52.971Z,19.40
2023-04-09T00:37:56.177Z,20.60
2023-04-09T00:38:59.234Z,18.60
2023-04-09T00:40:02.216Z,19.50
2023-04-09T00:41:05.566Z,20.00
2023-04-09T00:42:08.624Z,19.80
2023-04-09T00:43:12.137Z,19.50
2023-04-09T00:44:14.981Z,20.20
2023-04-09T00:45:17.960Z,20.90
2023-04-09T00:46:21.197Z,21.20
2023-04-09T00:47:24.227Z,19.90
2023-04-09T00:48:27.770Z,19.80
2023-04-09T00:49:30.978Z,21.00
2023-04-09T00:50:34.073Z,21.70
2023-04-09T00:51:37.298Z,20.00
2023-04-09T00:52:40.326Z,19.60
2023-04-09T00:53:44.085Z,21.40
2023-04-09T00:54:50.997Z,21.30
2023-04-09T00:55:55.855Z,23.00
2023-04-09T00:56:59.762Z,21.20
2023-04-09T00:58:03.248Z,24.30
2023-04-09T00:59:06.346Z,23.60
2023-04-09T01:00:09.835Z,23.40
2023-04-09T01:01:12.792Z,26.90
2023-04-09T01:02:15.756Z,21.00
2023-04-09T01:03:19.009Z,23.20
2023-04-09T01:04:23.375Z,21.40
2023-04-09T01:05:38.542Z,23.30
2023-04-09T01:07:03.646Z,22.90
2023-04-09T01:08:28.067Z,22.20
2023-04-09T01:09:37.201Z,22.40
2023-04-09T01:10:52.258Z,25.20
2023-04-09T01:12:02.890Z,22.40
2023-04-09T01:13:30.870Z,20.10
2023-04-09T01:14:54.891Z,21.30
2023-04-09T01:16:01.946Z,24.00
2023-04-09T01:17:11.625Z,25.80
2023-04-09T01:19:58.663Z,20.00
2023-04-09T01:21:04.951Z,20.20
2023-04-09T01:22:23.644Z,21.50
2023-04-09T01:23:45.454Z,22.30
2023-04-09T01:25:03.657Z,25.10
2023-04-09T01:26:22.898Z,24.20
2023-04-09T01:27:42.253Z,23.00
2023-04-09T01:28:47.948Z,20.80
2023-04-09T01:29:53.625Z,22.30
2023-04-09T01:31:03.766Z,23.60
2023-04-09T01:32:08.030Z,21.80
2023-04-09T01:33:12.172Z,23.80
2023-04-09T01:34:16.638Z,24.50
2023-04-09T01:35:20.411Z,22.70
2023-04-09T01:36:26.550Z,22.80
2023-04-09T01:37:29.800Z,22.90
2023-04-09T01:38:35.345Z,26.30
2023-04-09T01:39:39.150Z,22.70
2023-04-09T01:40:42.916Z,26.30
2023-04-09T01:41:46.970Z,23.00
2023-04-09T01:42:51.164Z,22.80
2023-04-09T01:43:55.603Z,22.20
2023-04-09T01:44:59.436Z,23.90
2023-04-09T01:46:03.769Z,25.60
2023-04-09T01:47:08.522Z,21.10
2023-04-09T01:48:14.208Z,23.30
2023-04-09T01:49:18.745Z,23.70
2023-04-09T01:50:22.248Z,22.80
2023-04-09T01:51:27.402Z,22.00
2023-04-09T01:52:30.538Z,26.10
2023-04-09T01:53:33.701Z,23.10
2023-04-09T01:54:36.569Z,25.90
2023-04-09T01:55:40.019Z,26.20
2023-04-09T01:56:47.779Z,26.00
2023-04-09T01:57:50.934Z,24.10
2023-04-09T01:58:53.985Z,24.40
2023-04-09T01:59:57.100Z,28.20
2023-04-09T02:01:26.625Z,26.10
2023-04-09T02:02:37.502Z,28.20
2023-04-09T02:03:51.606Z,25.80
2023-04-09T02:04:58.846Z,26.40
2023-04-09T02:06:14.632Z,24.70
2023-04-09T02:07:30.662Z,26.00
2023-04-09T02:08:34.939Z,25.50
2023-04-09T02:09:41.090Z,26.80
2023-04-09T02:10:53.326Z,27.40
2023-04-09T02:11:59.026Z,26.20
2023-04-09T02:13:05.863Z,28.10
2023-04-09T02:14:11.290Z,23.50
2023-04-09T02:15:15.588Z,24.80
2023-04-09T02:16:19.819Z,27.80
2023-04-09T02:17:23.342Z,29.00
2023-04-09T02:18:28.849Z,25.10
2023-04-09T02:19:46.169Z,25.30
2023-04-09T02:20:49.941Z,27.80
2023-04-09T02:21:52.768Z,27.90
2023-04-09T02:22:55.758Z,26.20
2023-04-09T02:23:58.653Z,25.10
2023-04-09T02:25:01.776Z,27.70
2023-04-09T02:26:04.872Z,27.90
2023-04-09T02:27:08.336Z,28.40
2023-04-09T02:28:11.228Z,30.20
2023-04-09T02:29:14.082Z,28.80
2023-04-09T02:30:16.981Z,29.80
2023-04-09T02:31:19.849Z,29.00
2023-04-09T02:32:22.816Z,28.60
2023-04-09T02:33:26.436Z,27.80
2023-04-09T02:34:29.827Z,29.40
2023-04-09T02:35:33.663Z,28.80
2023-04-09T02:36:36.677Z,29.30
2023-04-09T02:37:39.537Z,29.90
2023-04-09T02:38:42.894Z,30.10
2023-04-09T02:39:45.973Z,28.10
2023-04-09T02:40:48.843Z,27.50
2023-04-09T02:41:52.516Z,29.10
2023-04-09T02:42:55.686Z,28.90
2023-04-09T02:43:58.541Z,32.30
2023-04-09T02:45:01.776Z,30.40
2023-04-09T02:46:08.268Z,29.90
2023-04-09T02:47:11.432Z,29.60
2023-04-09T02:48:14.948Z,30.80
2023-04-09T02:49:19.446Z,30.20
2023-04-09T02:50:22.353Z,33.50
2023-04-09T02:51:27.600Z,31.80
2023-04-09T02:52:30.552Z,29.00
2023-04-09T02:53:33.441Z,29.20
2023-04-09T02:54:36.309Z,29.10
2023-04-09T02:55:39.193Z,34.90
2023-04-09T02:56:42.186Z,31.00
2023-04-09T02:57:45.609Z,31.90
2023-04-09T02:58:51.685Z,27.60
2023-04-09T02:59:55.717Z,29.40
2023-04-09T03:00:58.648Z,31.60
2023-04-09T03:02:01.634Z,32.50
2023-04-09T03:03:04.856Z,30.50
2023-04-09T03:04:07.994Z,29.80
2023-04-09T03:05:11.249Z,30.60
2023-04-09T03:06:14.254Z,28.20
2023-04-09T03:07:17.106Z,29.00
2023-04-09T03:08:20.028Z,33.00
2023-04-09T03:09:23.032Z,29.60
2023-04-09T03:10:25.921Z,30.10
2023-04-09T03:11:29.095Z,30.80
2023-04-09T03:12:32.181Z,29.40
2023-04-09T03:13:35.259Z,29.80
2023-04-09T03:14:38.164Z,29.00
2023-04-09T03:15:41.703Z,33.80
2023-04-09T03:16:44.664Z,31.20
2023-04-09T03:17:47.589Z,29.50
2023-04-09T03:18:50.658Z,32.60
2023-04-09T03:19:54.408Z,30.10
2023-04-09T03:20:57.622Z,29.70
2023-04-09T03:22:01.182Z,30.20
2023-04-09T03:23:07.083Z,30.80
2023-04-09T03:24:14.492Z,32.00
2023-04-09T03:25:19.778Z,29.80
2023-04-09T03:26:23.216Z,30.70
2023-04-09T03:27:26.757Z,34.10
2023-04-09T03:28:31.418Z,29.60
2023-04-09T03:29:34.564Z,32.40
2023-04-09T03:30:37.461Z,30.10
2023-04-09T03:31:41.931Z,31.30
2023-04-09T03:32:45.103Z,33.40
2023-04-09T03:33:49.233Z,32.30
2023-04-09T03:34:52.224Z,31.20
2023-04-09T03:35:55.998Z,29.80
2023-04-09T03:38:08.736Z,27.90
2023-04-09T03:39:11.683Z,27.90
2023-04-09T03:40:17.749Z,28.50
2023-04-09T03:41:20.658Z,32.60
2023-04-09T03:42:23.579Z,30.20
2023-04-09T03:43:27.719Z,32.50
2023-04-09T03:44:30.823Z,30.60
2023-04-09T03:45:41.732Z,30.90
2023-04-09T03:47:01.831Z,31.60
2023-04-09T03:48:05.105Z,32.00
2023-04-09T03:49:08.405Z,29.70
2023-04-09T03:50:15.777Z,31.80
2023-04-09T03:51:22.879Z,29.80
2023-04-09T03:52:29.911Z,31.10
2023-04-09T03:53:42.534Z,28.90
2023-04-09T03:54:45.442Z,32.90
2023-04-09T03:55:52.079Z,29.80
2023-04-09T03:56:59.285Z,31.80
2023-04-09T03:58:02.195Z,30.20
2023-04-09T03:59:07.854Z,30.90
2023-04-09T04:00:14.529Z,28.30
2023-04-09T04:01:45.065Z,30.00
2023-04-09T04:02:48.335Z,33.00
2023-04-09T04:03:51.814Z,29.50
2023-04-09T04:04:58.381Z,29.80
2023-04-09T04:06:04.300Z,30.10
2023-04-09T04:07:15.976Z,28.00
2023-04-09T04:08:24.515Z,28.40
2023-04-09T04:09:27.368Z,28.20
2023-04-09T04:10:34.442Z,28.10
2023-04-09T04:11:37.943Z,27.80
2023-04-09T04:12:41.597Z,30.20
2023-04-09T04:13:49.177Z,28.50
2023-04-09T04:14:52.032Z,27.50
2023-04-09T04:16:02.806Z,25.40
2023-04-09T04:17:05.727Z,28.30
2023-04-09T04:18:10.333Z,28.80
2023-04-09T04:19:25.634Z,26.80
2023-04-09T04:20:28.476Z,29.40
2023-04-09T04:21:41.854Z,26.90
2023-04-09T04:22:44.740Z,27.10
2023-04-09T04:23:47.764Z,27.00
2023-04-09T04:24:54.111Z,27.20
2023-04-09T04:25:58.200Z,26.50
2023-04-09T04:28:11.395Z,26.90
2023-04-09T04:29:16.904Z,30.00
2023-04-09T04:30:25.055Z,27.80
2023-04-09T04:31:35.059Z,29.40
2023-04-09T04:32:38.416Z,26.60
2023-04-09T04:33:44.497Z,27.10
2023-04-09T04:34:50.590Z,25.50
2023-04-09T04:36:12.170Z,27.00
2023-04-09T04:37:17.736Z,24.10
2023-04-09T04:38:20.794Z,25.30
2023-04-09T04:39:24.205Z,26.60
2023-04-09T04:40:31.680Z,24.80
2023-04-09T04:41:37.685Z,26.70
2023-04-09T04:42:49.988Z,29.60
2023-04-09T04:43:52.868Z,29.50
2023-04-09T04:44:58.415Z,28.10
2023-04-09T04:46:13.978Z,30.50
2023-04-09T04:47:16.896Z,28.10
2023-04-09T04:48:19.805Z,28.10
2023-04-09T04:49:23.366Z,27.10
2023-04-09T04:50:27.154Z,26.40
2023-04-09T04:51:34.654Z,27.80
2023-04-09T04:52:41.151Z,28.80
2023-04-09T04:53:44.832Z,29.30
2023-04-09T04:54:49.209Z,27.50
2023-04-09T04:55:55.947Z,26.80
2023-04-09T04:57:01.700Z,26.60
2023-04-09T04:58:10.239Z,28.90
2023-04-09T04:59:19.099Z,30.20
2023-04-09T05:00:41.399Z,27.60
2023-04-09T05:01:44.428Z,30.70
2023-04-09T05:02:48.504Z,35.60
2023-04-09T05:04:11.392Z,40.20
2023-04-09T05:05:14.497Z,45.60
2023-04-09T05:06:23.094Z,48.20
2023-04-09T05:07:26.012Z,47.30
2023-04-09T05:08:48.966Z,42.00
2023-04-09T05:09:52.129Z,36.00
2023-04-09T05:11:15.278Z,32.40
2023-04-09T05:12:19.311Z,34.80
2023-04-09T05:13:25.231Z,31.10
2023-04-09T05:14:28.257Z,31.20
2023-04-09T05:15:31.552Z,30.90
2023-04-09T05:16:34.460Z,29.70
2023-04-09T05:17:43.208Z,33.10
2023-04-09T05:18:47.287Z,29.00
2023-04-09T05:19:53.859Z,30.60
2023-04-09T05:21:01.405Z,32.50
2023-04-09T05:22:06.182Z,34.50
2023-04-09T05:23:10.452Z,38.70
2023-04-09T05:24:18.057Z,36.60
2023-04-09T05:25:21.115Z,39.80
2023-04-09T05:26:24.179Z,36.10
2023-04-09T05:27:33.146Z,36.70
2023-04-09T05:28:37.300Z,31.50
2023-04-09T05:29:49.925Z,31.40
2023-04-09T05:30:53.350Z,32.30
2023-04-09T05:31:56.429Z,30.00
2023-04-09T05:33:04.471Z,31.10
2023-04-09T05:34:07.467Z,30.60
2023-04-09T05:35:19.674Z,28.00
2023-04-09T05:36:22.607Z,28.80
2023-04-09T05:37:25.801Z,29.00
2023-04-09T05:38:28.956Z,30.80
2023-04-09T05:39:33.421Z,31.50
2023-04-09T05:40:36.735Z,32.70
2023-04-09T05:41:42.093Z,29.50
2023-04-09T05:43:08.098Z,28.80
2023-04-09T05:44:16.938Z,30.40
2023-04-09T05:45:19.936Z,25.30
2023-04-09T05:46:25.877Z,25.20
2023-04-09T05:47:29.781Z,25.70
2023-04-09T05:48:43.028Z,26.10
2023-04-09T05:49:47.271Z,24.70
2023-04-09T05:50:55.513Z,24.80
2023-04-09T05:53:05.253Z,25.40
2023-04-09T05:54:13.916Z,26.00
2023-04-09T05:55:17.307Z,23.00
2023-04-09T05:56:28.095Z,23.90
2023-04-09T05:57:32.748Z,24.40
2023-04-09T05:58:38.347Z,21.70
2023-04-09T05:59:41.265Z,23.70
2023-04-09T06:00:44.143Z,23.50
2023-04-09T06:01:47.067Z,23.00
2023-04-09T06:02:50.310Z,22.40
2023-04-09T06:03:56.082Z,20.10
2023-04-09T06:05:00.750Z,21.00
2023-04-09T06:06:03.769Z,21.20
2023-04-09T06:07:06.644Z,21.80
2023-04-09T06:08:09.515Z,21.00
2023-04-09T06:09:12.794Z,20.50
2023-04-09T06:10:16.009Z,24.50
2023-04-09T06:11:18.920Z,24.30
2023-04-09T06:12:22.196Z,21.60
2023-04-09T06:13:25.041Z,19.90
2023-04-09T06:14:28.037Z,22.90
2023-04-09T06:15:30.912Z,19.90
2023-04-09T06:16:33.837Z,19.50
2023-04-09T06:17:36.938Z,20.40
2023-04-09T06:18:39.835Z,21.50
2023-04-09T06:19:42.684Z,19.60
2023-04-09T06:20:45.578Z,18.50
2023-04-09T06:21:48.427Z,21.30
2023-04-09T06:22:51.285Z,21.80
2023-04-09T06:23:54.513Z,19.60
2023-04-09T06:24:57.665Z,19.60
2023-04-09T06:26:02.641Z,20.10
2023-04-09T06:27:06.020Z,20.70
2023-04-09T06:28:08.954Z,18.50
2023-04-09T06:29:11.824Z,19.30
2023-04-09T06:30:14.671Z,21.10
2023-04-09T06:31:17.805Z,20.90
2023-04-09T06:32:20.850Z,21.70
2023-04-09T06:33:24.350Z,19.70
2023-04-09T06:34:27.191Z,21.60
2023-04-09T06:35:30.086Z,22.90
2023-04-09T06:36:33.529Z,22.70
2023-04-09T06:37:36.524Z,22.40
2023-04-09T06:38:39.483Z,22.10
2023-04-09T06:39:47.708Z,22.30
2023-04-09T06:41:01.255Z,22.50
2023-04-09T06:42:04.148Z,21.90
2023-04-09T06:43:15.648Z,19.00
2023-04-09T06:44:26.451Z,19.10
2023-04-09T06:45:29.816Z,19.80
2023-04-09T06:46:32.729Z,20.50
2023-04-09T06:47:36.493Z,18.00
2023-04-09T06:48:39.705Z,18.00
2023-04-09T06:49:42.563Z,21.30
2023-04-09T06:50:45.791Z,18.30
2023-04-09T06:51:48.643Z,17.20
2023-04-09T06:52:52.935Z,18.40
2023-04-09T06:53:55.953Z,18.10
2023-04-09T06:54:59.085Z,19.60
2023-04-09T06:56:02.009Z,17.60
2023-04-09T06:57:06.669Z,21.00
2023-04-09T06:58:09.701Z,16.90
2023-04-09T06:59:12.616Z,17.50
2023-04-09T07:00:15.874Z,17.50
2023-04-09T07:01:19.082Z,16.80
2023-04-09T07:02:22.151Z,16.70
2023-04-09T07:03:27.935Z,17.30
2023-04-09T07:04:31.190Z,16.90
2023-04-09T07:05:34.099Z,16.20
2023-04-09T07:06:37.006Z,15.50
2023-04-09T07:07:39.853Z,16.90
2023-04-09T07:08:42.760Z,17.50
2023-04-09T07:09:46.167Z,17.10
2023-04-09T07:10:49.459Z,15.80
2023-04-09T07:11:52.513Z,15.00
2023-04-09T07:12:55.553Z,16.50
2023-04-09T07:13:59.613Z,14.00
2023-04-09T07:15:04.653Z,14.50
2023-04-09T07:16:07.572Z,13.20
2023-04-09T07:17:10.434Z,12.70
2023-04-09T07:18:13.374Z,12.30
2023-04-09T07:19:16.398Z,13.70
2023-04-09T07:20:19.348Z,12.60
2023-04-09T07:21:22.656Z,13.20
2023-04-09T07:22:27.368Z,12.50
2023-04-09T07:23:30.712Z,12.60
2023-04-09T07:24:33.700Z,13.10
2023-04-09T07:25:36.636Z,13.30
2023-04-09T07:26:39.660Z,16.00
2023-04-09T07:27:45.416Z,12.90
2023-04-09T07:28:48.269Z,13.10
2023-04-09T07:29:51.306Z,14.10
2023-04-09T07:30:54.204Z,12.80
2023-04-09T07:31:57.504Z,13.80
2023-04-09T07:33:00.802Z,14.00
2023-04-09T07:34:03.689Z,14.00
2023-04-09T07:35:09.943Z,14.60
2023-04-09T07:36:13.057Z,14.80
2023-04-09T07:37:16.348Z,15.20
2023-04-09T07:38:19.242Z,16.20
2023-04-09T07:39:22.416Z,14.50
2023-04-09T07:40:25.312Z,15.80
2023-04-09T07:41:28.170Z,15.90
2023-04-09T07:42:31.093Z,15.90
2023-04-09T07:43:34.312Z,14.80
2023-04-09T07:44:37.503Z,15.70
2023-04-09T07:45:40.424Z,15.60
2023-04-09T07:46:44.086Z,17.10
2023-04-09T07:47:47.054Z,14.10
2023-04-09T07:48:50.537Z,16.20
2023-04-09T07:49:53.804Z,15.20
2023-04-09T07:50:56.858Z,15.30
2023-04-09T07:52:00.510Z,14.80
2023-04-09T07:53:03.406Z,14.80
2023-04-09T07:54:06.565Z,16.40
2023-04-09T07:55:09.577Z,16.50
2023-04-09T07:56:12.439Z,16.40
2023-04-09T07:57:15.369Z,14.90
2023-04-09T07:58:18.228Z,16.70
2023-04-09T07:59:21.062Z,15.20
2023-04-09T08:00:23.997Z,15.80
2023-04-09T08:01:26.970Z,15.00
2023-04-09T08:02:30.460Z,17.90
2023-04-09T08:03:33.706Z,17.10
2023-04-09T08:04:36.924Z,14.50
2023-04-09T08:05:40.553Z,16.70
2023-04-09T08:06:46.893Z,15.50
2023-04-09T08:07:51.238Z,15.10
2023-04-09T08:08:54.481Z,16.10
2023-04-09T08:09:57.547Z,17.90
2023-04-09T08:11:00.417Z,17.40
2023-04-09T08:12:04.110Z,17.70
2023-04-09T08:13:07.016Z,25.00
2023-04-09T08:14:12.970Z,16.10
2023-04-09T08:15:16.181Z,14.50
2023-04-09T08:16:19.854Z,26.50
2023-04-09T08:17:23.394Z,16.00
2023-04-09T08:18:26.256Z,16.20
2023-04-09T08:19:29.101Z,15.50
2023-04-09T08:20:33.137Z,18.60
2023-04-09T08:21:43.354Z,15.50
2023-04-09T08:22:46.850Z,19.10
2023-04-09T08:23:49.832Z,21.70
2023-04-09T08:24:53.395Z,18.90
2023-04-09T08:25:56.527Z,12.90
2023-04-09T08:26:59.376Z,13.90
2023-04-09T08:28:02.483Z,13.70
2023-04-09T08:29:05.491Z,14.00
2023-04-09T08:30:09.100Z,14.50
2023-04-09T08:31:11.945Z,16.80
2023-04-09T08:32:15.411Z,17.10
2023-04-09T08:33:18.338Z,13.30
2023-04-09T08:34:22.282Z,13.60
2023-04-09T08:35:25.283Z,13.90
2023-04-09T08:36:28.532Z,14.10
2023-04-09T08:37:32.530Z,15.70
2023-04-09T08:38:35.457Z,15.60
2023-04-09T08:39:38.394Z,14.40
2023-04-09T08:40:41.406Z,14.60
2023-04-09T08:41:45.505Z,14.30
2023-04-09T08:42:55.355Z,15.20
2023-04-09T08:45:06.288Z,15.00
2023-04-09T08:46:10.791Z,12.30
2023-04-09T08:47:13.793Z,12.20
2023-04-09T08:48:18.248Z,13.90
2023-04-09T08:49:21.715Z,13.20
2023-04-09T08:50:24.605Z,13.60
2023-04-09T08:51:28.813Z,14.50
2023-04-09T08:52:35.367Z,13.40
2023-04-09T08:53:39.133Z,15.60
2023-04-09T08:54:42.016Z,12.60
2023-04-09T08:55:48.585Z,12.20
2023-04-09T08:56:51.460Z,13.40
2023-04-09T08:57:54.330Z,12.00
2023-04-09T08:58:57.686Z,25.20
2023-04-09T09:00:00.563Z,15.30
2023-04-09T09:01:03.518Z,13.10
2023-04-09T09:02:07.746Z,12.60
2023-04-09T09:03:16.101Z,12.70
2023-04-09T09:04:19.152Z,13.30
2023-04-09T09:05:39.699Z,24.00
2023-04-09T09:06:42.620Z,20.70
2023-04-09T09:07:54.730Z,13.10
2023-04-09T09:09:01.047Z,12.80
2023-04-09T09:10:04.601Z,14.00
2023-04-09T09:11:07.648Z,17.40
2023-04-09T09:12:10.632Z,16.70
2023-04-09T09:13:22.716Z,13.30
2023-04-09T09:14:25.738Z,13.10
2023-04-09T09:15:30.153Z,14.40
2023-04-09T09:16:35.687Z,11.40
2023-04-09T09:17:54.885Z,12.20
2023-04-09T09:18:57.932Z,15.70
2023-04-09T09:20:19.720Z,14.20
2023-04-09T09:21:23.446Z,24.60
2023-04-09T09:22:26.360Z,44.60
2023-04-09T09:23:36.954Z,19.90
2023-04-09T09:24:50.441Z,13.70
2023-04-09T09:25:53.553Z,36.80
2023-04-09T09:26:57.501Z,27.70
2023-04-09T09:28:11.569Z,16.50
2023-04-09T09:29:14.799Z,42.50
2023-04-09T09:30:26.198Z,31.70
2023-04-09T09:31:29.411Z,16.60
2023-04-09T09:32:33.414Z,15.20
2023-04-09T09:33:36.596Z,19.20
2023-04-09T09:34:39.516Z,31.60
2023-04-09T09:35:49.569Z,44.90
2023-04-09T09:36:52.626Z,20.70
2023-04-09T09:38:04.245Z,18.90
2023-04-09T09:39:13.219Z,15.70
2023-04-09T09:40:28.928Z,18.00
2023-04-09T09:41:31.981Z,14.60
2023-04-09T09:42:34.930Z,13.50
2023-04-09T09:43:42.798Z,14.30
2023-04-09T09:44:45.737Z,13.50
2023-04-09T09:45:48.998Z,16.50
2023-04-09T09:46:51.997Z,27.80
2023-04-09T09:47:55.029Z,19.80
2023-04-09T09:48:57.959Z,18.10
2023-04-09T09:50:01.068Z,19.60
2023-04-09T09:51:11.926Z,15.70
2023-04-09T09:52:15.847Z,14.40
2023-04-09T09:53:23.190Z,12.90
2023-04-09T09:54:31.412Z,11.80
2023-04-09T09:55:39.221Z,13.10
2023-04-09T09:56:44.086Z,11.60
2023-04-09T09:57:49.342Z,12.00
2023-04-09T09:59:03.917Z,14.70
2023-04-09T10:00:12.290Z,11.00
2023-04-09T10:01:18.377Z,12.30
2023-04-09T10:02:24.465Z,11.60
2023-04-09T10:03:31.355Z,14.50
2023-04-09T10:04:38.270Z,12.60
2023-04-09T10:05:42.075Z,11.70
2023-04-09T10:06:46.298Z,12.20
2023-04-09T10:07:49.733Z,11.60
2023-04-09T10:08:56.838Z,12.90
2023-04-09T10:10:02.277Z,12.10
2023-04-09T10:11:07.839Z,12.50
2023-04-09T10:12:12.196Z,13.10
2023-04-09T10:13:21.971Z,12.40
2023-04-09T10:14:26.341Z,13.50
2023-04-09T10:15:29.749Z,12.60
2023-04-09T10:16:33.032Z,11.30
2023-04-09T10:17:36.871Z,11.80
2023-04-09T10:18:42.303Z,13.20
2023-04-09T10:19:55.796Z,11.70
2023-04-09T10:21:04.766Z,13.80
2023-04-09T10:22:13.374Z,11.30
2023-04-09T10:23:37.113Z,14.30
2023-04-09T10:24:40.993Z,11.70
2023-04-09T10:25:44.322Z,11.60
2023-04-09T10:26:47.300Z,10.90
2023-04-09T10:28:17.538Z,11.40
2023-04-09T10:29:28.251Z,10.80
2023-04-09T10:30:35.279Z,11.30
2023-04-09T10:31:53.149Z,10.80
2023-04-09T10:32:56.617Z,11.40
2023-04-09T10:34:04.723Z,12.70
2023-04-09T10:35:09.547Z,11.90
2023-04-09T10:36:13.190Z,11.90
2023-04-09T10:37:24.675Z,11.00
2023-04-09T10:38:53.688Z,11.40
2023-04-09T10:39:57.982Z,11.70
2023-04-09T10:41:07.207Z,10.60
2023-04-09T10:42:22.110Z,10.30
2023-04-09T10:43:25.037Z,9.90
2023-04-09T10:44:28.824Z,10.90
2023-04-09T10:45:42.117Z,11.70
2023-04-09T10:46:46.156Z,11.80
2023-04-09T10:47:53.602Z,11.30
2023-04-09T10:49:19.337Z,11.30
2023-04-09T10:50:26.647Z,9.80
2023-04-09T10:51:35.318Z,10.80
2023-04-09T10:52:41.098Z,9.40
2023-04-09T10:53:43.949Z,10.50
2023-04-09T10:54:47.192Z,10.50
2023-04-09T10:55:52.147Z,9.90
2023-04-09T10:57:07.133Z,10.80
2023-04-09T10:58:13.458Z,10.50
2023-04-09T10:59:16.610Z,10.40
2023-04-09T11:00:19.529Z,9.90
2023-04-09T11:01:22.916Z,9.70
2023-04-09T11:02:32.108Z,9.20
2023-04-09T11:03:44.790Z,8.30
2023-04-09T11:05:13.539Z,11.00
2023-04-09T11:06:20.807Z,9.70
2023-04-09T11:07:25.242Z,12.60
2023-04-09T11:08:30.262Z,10.30
2023-04-09T11:09:37.119Z,9.30
2023-04-09T11:10:44.095Z,9.70
2023-04-09T11:11:53.313Z,10.30
2023-04-09T11:12:56.215Z,10.70
2023-04-09T11:14:03.321Z,10.20
2023-04-09T11:15:07.026Z,10.90
2023-04-09T11:16:12.139Z,9.70
2023-04-09T11:17:26.300Z,12.40
2023-04-09T11:18:34.891Z,11.50
2023-04-09T11:19:37.818Z,10.50
2023-04-09T11:20:40.849Z,10.40
2023-04-09T11:21:46.421Z,10.00
2023-04-09T11:22:53.854Z,11.40
2023-04-09T11:23:56.763Z,10.20
2023-04-09T11:24:59.629Z,10.60
2023-04-09T11:26:02.820Z,9.80
2023-04-09T11:27:05.756Z,8.70
2023-04-09T11:28:08.764Z,9.90
2023-04-09T11:29:11.771Z,11.00
2023-04-09T11:30:15.418Z,8.40
2023-04-09T11:31:18.401Z,8.80
2023-04-09T11:32:21.349Z,10.40
2023-04-09T11:33:32.004Z,9.80
2023-04-09T11:34:34.851Z,9.30
2023-04-09T11:35:37.881Z,10.70
2023-04-09T11:36:41.176Z,10.50
2023-04-09T11:37:45.413Z,9.50
2023-04-09T11:38:50.901Z,9.00
2023-04-09T11:39:57.344Z,11.10
2023-04-09T11:41:01.830Z,10.40
2023-04-09T11:42:04.726Z,8.80
2023-04-09T11:43:08.341Z,8.30
2023-04-09T11:44:11.246Z,8.90
2023-04-09T11:45:15.651Z,9.40
2023-04-09T11:46:18.651Z,8.80
2023-04-09T11:47:22.297Z,8.50
2023-04-09T11:48:25.338Z,9.10
2023-04-09T11:49:28.323Z,8.90
2023-04-09T11:50:32.256Z,8.60
2023-04-09T11:51:35.815Z,9.20
2023-04-09T11:52:41.390Z,8.30
2023-04-09T11:53:44.198Z,9.50
2023-04-09T11:54:50.405Z,9.70
2023-04-09T11:55:53.688Z,7.70
2023-04-09T11:56:59.352Z,9.30
2023-04-09T11:58:03.068Z,11.00
2023-04-09T11:59:06.360Z,8.90
2023-04-09T12:00:14.372Z,8.70
2023-04-09T12:01:17.283Z,11.60
2023-04-09T12:02:20.542Z,10.00
2023-04-09T12:03:31.351Z,8.20
2023-04-09T12:04:34.621Z,8.00
2023-04-09T12:05:39.863Z,7.90
2023-04-09T12:06:44.876Z,7.30
2023-04-09T12:07:55.381Z,6.90
2023-04-09T12:08:59.636Z,7.90
2023-04-09T12:10:10.527Z,6.70
2023-04-09T12:11:16.242Z,6.60
2023-04-09T12:12:24.160Z,6.40
2023-04-09T12:13:33.475Z,6.70
2023-04-09T12:14:36.493Z,8.20
2023-04-09T12:15:43.399Z,6.80
2023-04-09T12:16:51.549Z,7.30
2023-04-09T12:17:55.965Z,6.50
2023-04-09T12:19:09.238Z,6.70
2023-04-09T12:20:12.186Z,6.90
2023-04-09T12:21:16.179Z,6.70
2023-04-09T12:22:20.957Z,6.40
2023-04-09T12:23:23.811Z,8.40
2023-04-09T12:24:28.190Z,6.20
2023-04-09T12:25:45.467Z,11.10
2023-04-09T12:26:49.716Z,6.90
2023-04-09T12:27:52.936Z,8.20
2023-04-09T12:28:55.786Z,7.20
2023-04-09T12:29:58.658Z,9.10
2023-04-09T12:31:03.628Z,9.10
2023-04-09T12:32:06.783Z,7.70
2023-04-09T12:33:11.486Z,7.60
2023-04-09T12:34:14.601Z,7.70
2023-04-09T12:35:18.057Z,7.30
2023-04-09T12:36:21.005Z,7.20
2023-04-09T12:37:23.901Z,7.60
2023-04-09T12:38:26.933Z,8.30
2023-04-09T12:39:29.869Z,7.80
2023-04-09T12:40:33.013Z,8.30
2023-04-09T12:41:36.064Z,7.40
2023-04-09T12:42:38.946Z,8.30
2023-04-09T12:43:44.042Z,7.60
2023-04-09T12:44:46.968Z,7.90
2023-04-09T12:45:49.937Z,7.80
2023-04-09T12:46:52.887Z,9.00
2023-04-09T12:47:56.042Z,8.00
2023-04-09T12:48:58.999Z,7.80
2023-04-09T12:50:04.413Z,8.40
2023-04-09T12:51:07.484Z,9.90
2023-04-09T12:52:10.309Z,7.60
2023-04-09T12:53:13.232Z,12.10
2023-04-09T12:54:16.331Z,9.50
2023-04-09T12:55:19.216Z,9.10
2023-04-09T12:56:22.105Z,8.20
2023-04-09T12:57:24.987Z,9.10
2023-04-09T12:58:27.874Z,11.20
2023-04-09T12:59:30.883Z,11.80
2023-04-09T13:00:34.096Z,9.40
2023-04-09T13:01:36.993Z,7.80
2023-04-09T13:02:40.333Z,7.60
2023-04-09T13:03:43.447Z,8.30
2023-04-09T13:04:47.328Z,7.60
2023-04-09T13:05:50.694Z,12.30
2023-04-09T13:06:53.652Z,8.40
2023-04-09T13:07:56.579Z,8.00
2023-04-09T13:08:59.525Z,8.80
2023-04-09T13:10:02.435Z,8.30
2023-04-09T13:11:05.995Z,8.60
2023-04-09T13:12:08.870Z,8.60
2023-04-09T13:13:14.530Z,7.90
2023-04-09T13:14:17.416Z,8.90
2023-04-09T13:15:20.439Z,8.50
2023-04-09T13:16:23.329Z,8.20
2023-04-09T13:17:26.390Z,8.40
2023-04-09T13:18:29.285Z,8.40
2023-04-09T13:19:32.468Z,8.30
2023-04-09T13:20:35.462Z,11.50
2023-04-09T13:21:38.441Z,9.50
2023-04-09T13:22:41.394Z,9.00
2023-04-09T13:23:44.944Z,9.40
2023-04-09T13:24:47.831Z,7.80
2023-04-09T13:25:51.091Z,9.00
2023-04-09T13:26:54.170Z,9.20
2023-04-09T13:27:57.041Z,8.00
2023-04-09T13:29:00.205Z,7.80
2023-04-09T13:30:03.690Z,8.50
2023-04-09T13:31:06.739Z,9.20
2023-04-09T13:32:11.314Z,7.70
2023-04-09T13:33:14.284Z,8.80
2023-04-09T13:34:17.115Z,7.60
2023-04-09T13:35:20.037Z,7.80
2023-04-09T13:36:22.955Z,6.90
2023-04-09T13:37:26.144Z,8.10
2023-04-09T13:38:29.014Z,7.90
2023-04-09T13:39:32.152Z,7.70
2023-04-09T13:40:35.527Z,7.00
2023-04-09T13:41:38.410Z,7.70
2023-04-09T13:42:41.586Z,8.70
2023-04-09T13:43:45.214Z,8.20
2023-04-09T13:44:48.047Z,6.90
2023-04-09T13:45:50.956Z,7.80
2023-04-09T13:46:53.909Z,7.30
2023-04-09T13:47:56.831Z,8.60
2023-04-09T13:48:59.788Z,7.00
2023-04-09T13:50:03.112Z,10.10
2023-04-09T13:51:06.984Z,7.70
2023-04-09T13:52:10.835Z,8.60
2023-04-09T13:53:14.320Z,9.90
2023-04-09T13:54:18.685Z,8.10
2023-04-09T13:55:21.581Z,6.90
2023-04-09T13:56:25.329Z,7.40
2023-04-09T13:57:28.511Z,6.90
2023-04-09T13:58:31.619Z,8.40
2023-04-09T13:59:34.522Z,7.30
2023-04-09T14:00:38.352Z,7.00
2023-04-09T14:01:41.464Z,7.40
2023-04-09T14:02:44.603Z,9.30
2023-04-09T14:03:47.559Z,7.00
2023-04-09T14:04:51.218Z,9.90
2023-04-09T14:05:54.095Z,8.30
2023-04-09T14:06:57.896Z,9.40
2023-04-09T14:08:00.915Z,7.80
2023-04-09T14:09:03.829Z,7.90
2023-04-09T14:10:07.477Z,9.40
2023-04-09T14:11:14.001Z,9.60
2023-04-09T14:12:17.510Z,10.80